sensor_id;sensor_type;location;lat;lon;timestamp;temperature;humidity
36548;DHT22;22551;52.206;4.856;2023-01-16T00:01:11;4.10;99.90
36548;DHT22;22551;52.206;4.856;2023-01-16T00:06:14;4.00;99.90
36548;DHT22;22551;52.206;4.856;2023-01-16T00:11:17;4.00;99.90
36548;DHT22;22551;52.206;4.856;2023-01-16T00:16:19;3.90;99.90
36548;DHT22;22551;52.206;4.856;2023-01-16T00:21:23;3.80;99.90
36548;DHT22;22551;52.206;4.856;2023-01-16T00:26:27;3.70;99.90
36548;DHT22;22551;52.206;4.856;2023-01-16T00:31:30;3.60;99.90
36548;DHT22;22551;52.206;4.856;2023-01-16T00:36:33;3.50;99.90
36548;DHT22;22551;52.206;4.856;2023-01-16T00:41:36;3.50;99.90
36548;DHT22;22551;52.206;4.856;2023-01-16T00:46:38;3.40;99.90
36548;DHT22;22551;52.206;4.856;2023-01-16T00:51:41;3.30;99.90
36548;DHT22;22551;52.206;4.856;2023-01-16T00:56:43;3.30;99.90
36548;DHT22;22551;52.206;4.856;2023-01-16T01:01:46;3.20;99.90
36548;DHT22;22551;52.206;4.856;2023-01-16T01:06:50;3.20;99.90
36548;DHT22;22551;52.206;4.856;2023-01-16T01:11:52;3.20;99.90
36548;DHT22;22551;52.206;4.856;2023-01-16T01:16:54;3.10;99.90
36548;DHT22;22551;52.206;4.856;2023-01-16T01:21:58;3.10;99.90
36548;DHT22;22551;52.206;4.856;2023-01-16T01:27:00;3.10;99.90
36548;DHT22;22551;52.206;4.856;2023-01-16T01:32:02;3.20;99.90
36548;DHT22;22551;52.206;4.856;2023-01-16T01:37:07;3.10;99.90
36548;DHT22;22551;52.206;4.856;2023-01-16T01:42:10;3.10;99.90
36548;DHT22;22551;52.206;4.856;2023-01-16T01:47:32;3.10;99.90
36548;DHT22;22551;52.206;4.856;2023-01-16T01:52:37;3.20;99.90
36548;DHT22;22551;52.206;4.856;2023-01-16T01:57:44;3.20;99.90
36548;DHT22;22551;52.206;4.856;2023-01-16T02:02:52;3.20;99.90
36548;DHT22;22551;52.206;4.856;2023-01-16T02:08:00;3.20;99.90
36548;DHT22;22551;52.206;4.856;2023-01-16T02:13:03;3.20;99.90
36548;DHT22;22551;52.206;4.856;2023-01-16T02:18:09;3.10;99.90
36548;DHT22;22551;52.206;4.856;2023-01-16T02:23:52;3.00;99.90
36548;DHT22;22551;52.206;4.856;2023-01-16T02:29:29;3.10;99.90
36548;DHT22;22551;52.206;4.856;2023-01-16T02:34:53;3.10;99.90
36548;DHT22;22551;52.206;4.856;2023-01-16T02:40:21;3.10;99.90
36548;DHT22;22551;52.206;4.856;2023-01-16T02:45:39;3.10;99.90
36548;DHT22;22551;52.206;4.856;2023-01-16T02:50:51;3.00;99.90
36548;DHT22;22551;52.206;4.856;2023-01-16T02:55:59;3.00;99.90
36548;DHT22;22551;52.206;4.856;2023-01-16T03:01:09;2.90;99.90
36548;DHT22;22551;52.206;4.856;2023-01-16T03:06:27;2.90;99.90
36548;DHT22;22551;52.206;4.856;2023-01-16T03:11:37;2.90;99.90
36548;DHT22;22551;52.206;4.856;2023-01-16T03:16:55;2.90;99.90
36548;DHT22;22551;52.206;4.856;2023-01-16T03:22:11;2.90;99.90
36548;DHT22;22551;52.206;4.856;2023-01-16T03:27:33;2.90;99.90
36548;DHT22;22551;52.206;4.856;2023-01-16T03:32:44;2.90;99.90
36548;DHT22;22551;52.206;4.856;2023-01-16T03:37:52;2.80;99.90
36548;DHT22;22551;52.206;4.856;2023-01-16T03:43:00;2.90;99.90
36548;DHT22;22551;52.206;4.856;2023-01-16T03:48:06;2.80;99.90
36548;DHT22;22551;52.206;4.856;2023-01-16T03:53:15;2.90;99.90
36548;DHT22;22551;52.206;4.856;2023-01-16T03:58:21;2.90;99.90
36548;DHT22;22551;52.206;4.856;2023-01-16T04:03:37;2.90;99.90
36548;DHT22;22551;52.206;4.856;2023-01-16T04:08:46;2.80;99.90
36548;DHT22;22551;52.206;4.856;2023-01-16T04:13:53;2.80;99.90
36548;DHT22;22551;52.206;4.856;2023-01-16T04:18:57;2.80;99.90
36548;DHT22;22551;52.206;4.856;2023-01-16T04:24:03;2.80;99.90
36548;DHT22;22551;52.206;4.856;2023-01-16T04:29:07;2.90;99.90
36548;DHT22;22551;52.206;4.856;2023-01-16T04:34:09;2.90;99.90
36548;DHT22;22551;52.206;4.856;2023-01-16T04:39:13;2.90;99.90
36548;DHT22;22551;52.206;4.856;2023-01-16T04:44:15;2.90;99.90
36548;DHT22;22551;52.206;4.856;2023-01-16T04:49:18;2.90;99.90
36548;DHT22;22551;52.206;4.856;2023-01-16T04:54:23;2.90;99.90
36548;DHT22;22551;52.206;4.856;2023-01-16T04:59:26;2.90;99.90
36548;DHT22;22551;52.206;4.856;2023-01-16T05:04:28;2.90;99.90
36548;DHT22;22551;52.206;4.856;2023-01-16T05:09:32;2.90;99.90
36548;DHT22;22551;52.206;4.856;2023-01-16T05:14:35;2.90;99.90
36548;DHT22;22551;52.206;4.856;2023-01-16T05:19:37;3.00;99.90
36548;DHT22;22551;52.206;4.856;2023-01-16T05:24:41;3.10;99.90
36548;DHT22;22551;52.206;4.856;2023-01-16T05:29:43;3.10;99.90
36548;DHT22;22551;52.206;4.856;2023-01-16T05:34:48;3.20;99.90
36548;DHT22;22551;52.206;4.856;2023-01-16T05:39:51;3.20;99.90
36548;DHT22;22551;52.206;4.856;2023-01-16T05:44:57;3.30;99.90
36548;DHT22;22551;52.206;4.856;2023-01-16T05:49:59;3.40;99.90
36548;DHT22;22551;52.206;4.856;2023-01-16T05:55:04;3.40;99.90
36548;DHT22;22551;52.206;4.856;2023-01-16T06:00:07;3.50;99.90
36548;DHT22;22551;52.206;4.856;2023-01-16T06:05:10;3.50;99.90
36548;DHT22;22551;52.206;4.856;2023-01-16T06:10:15;3.50;99.90
36548;DHT22;22551;52.206;4.856;2023-01-16T06:15:17;3.60;99.90
36548;DHT22;22551;52.206;4.856;2023-01-16T06:20:20;3.60;99.90
36548;DHT22;22551;52.206;4.856;2023-01-16T06:25:23;3.70;99.90
36548;DHT22;22551;52.206;4.856;2023-01-16T06:30:26;3.70;99.90
36548;DHT22;22551;52.206;4.856;2023-01-16T06:35:28;3.80;99.90
36548;DHT22;22551;52.206;4.856;2023-01-16T06:40:32;3.80;99.90
36548;DHT22;22551;52.206;4.856;2023-01-16T06:45:37;3.90;99.90
36548;DHT22;22551;52.206;4.856;2023-01-16T06:50:40;3.90;99.90
36548;DHT22;22551;52.206;4.856;2023-01-16T06:55:44;3.90;99.90
36548;DHT22;22551;52.206;4.856;2023-01-16T07:00:47;3.90;99.90
36548;DHT22;22551;52.206;4.856;2023-01-16T07:05:52;4.00;99.90
36548;DHT22;22551;52.206;4.856;2023-01-16T07:10:58;4.00;99.90
36548;DHT22;22551;52.206;4.856;2023-01-16T07:16:02;4.00;99.90
36548;DHT22;22551;52.206;4.856;2023-01-16T07:21:21;4.10;99.90
36548;DHT22;22551;52.206;4.856;2023-01-16T07:26:47;4.10;99.90
36548;DHT22;22551;52.206;4.856;2023-01-16T07:31:51;4.10;99.90
36548;DHT22;22551;52.206;4.856;2023-01-16T07:36:54;4.10;99.90
36548;DHT22;22551;52.206;4.856;2023-01-16T07:42:03;4.00;99.90
36548;DHT22;22551;52.206;4.856;2023-01-16T07:47:06;4.10;99.90
36548;DHT22;22551;52.206;4.856;2023-01-16T07:52:11;4.00;99.90
36548;DHT22;22551;52.206;4.856;2023-01-16T07:57:15;4.00;99.90
36548;DHT22;22551;52.206;4.856;2023-01-16T08:02:17;3.90;99.90
36548;DHT22;22551;52.206;4.856;2023-01-16T08:07:20;3.90;99.90
36548;DHT22;22551;52.206;4.856;2023-01-16T08:12:24;3.90;99.90
36548;DHT22;22551;52.206;4.856;2023-01-16T08:17:26;3.90;99.90
36548;DHT22;22551;52.206;4.856;2023-01-16T08:22:31;3.90;99.90
36548;DHT22;22551;52.206;4.856;2023-01-16T08:27:35;4.00;99.90
36548;DHT22;22551;52.206;4.856;2023-01-16T08:32:37;4.00;99.90
36548;DHT22;22551;52.206;4.856;2023-01-16T08:37:47;4.00;99.90
36548;DHT22;22551;52.206;4.856;2023-01-16T08:42:52;4.00;99.90
36548;DHT22;22551;52.206;4.856;2023-01-16T08:48:24;4.00;99.90
36548;DHT22;22551;52.206;4.856;2023-01-16T08:53:47;4.00;99.90
36548;DHT22;22551;52.206;4.856;2023-01-16T08:58:53;4.00;99.90
36548;DHT22;22551;52.206;4.856;2023-01-16T09:03:55;4.00;99.90
36548;DHT22;22551;52.206;4.856;2023-01-16T09:08:59;4.00;99.90
36548;DHT22;22551;52.206;4.856;2023-01-16T09:14:03;4.00;99.90
36548;DHT22;22551;52.206;4.856;2023-01-16T09:19:06;4.10;99.90
36548;DHT22;22551;52.206;4.856;2023-01-16T09:24:08;4.10;99.90
36548;DHT22;22551;52.206;4.856;2023-01-16T09:29:17;4.10;99.90
36548;DHT22;22551;52.206;4.856;2023-01-16T09:34:19;4.20;99.90
36548;DHT22;22551;52.206;4.856;2023-01-16T09:39:21;4.20;99.90
36548;DHT22;22551;52.206;4.856;2023-01-16T09:44:25;4.30;99.90
36548;DHT22;22551;52.206;4.856;2023-01-16T09:49:43;4.30;99.90
36548;DHT22;22551;52.206;4.856;2023-01-16T09:54:54;4.40;99.90
36548;DHT22;22551;52.206;4.856;2023-01-16T10:00:18;4.50;99.90
36548;DHT22;22551;52.206;4.856;2023-01-16T10:05:28;4.50;99.90
36548;DHT22;22551;52.206;4.856;2023-01-16T10:10:43;4.60;99.90
36548;DHT22;22551;52.206;4.856;2023-01-16T10:15:54;4.60;99.90
36548;DHT22;22551;52.206;4.856;2023-01-16T10:26:51;4.60;99.90
36548;DHT22;22551;52.206;4.856;2023-01-16T10:32:05;4.60;99.90
36548;DHT22;22551;52.206;4.856;2023-01-16T10:37:11;4.60;99.90
36548;DHT22;22551;52.206;4.856;2023-01-16T10:42:17;4.60;99.90
36548;DHT22;22551;52.206;4.856;2023-01-16T10:47:42;4.60;99.90
36548;DHT22;22551;52.206;4.856;2023-01-16T10:53:03;4.60;99.90
36548;DHT22;22551;52.206;4.856;2023-01-16T10:58:12;4.60;99.90
36548;DHT22;22551;52.206;4.856;2023-01-16T11:03:32;4.60;99.90
36548;DHT22;22551;52.206;4.856;2023-01-16T11:08:36;4.60;99.90
36548;DHT22;22551;52.206;4.856;2023-01-16T11:13:41;4.60;99.90
36548;DHT22;22551;52.206;4.856;2023-01-16T11:19:15;4.60;99.90
36548;DHT22;22551;52.206;4.856;2023-01-16T11:24:24;4.70;99.90
36548;DHT22;22551;52.206;4.856;2023-01-16T11:29:37;4.70;99.90
36548;DHT22;22551;52.206;4.856;2023-01-16T11:34:45;4.70;99.90
36548;DHT22;22551;52.206;4.856;2023-01-16T11:39:50;4.70;99.90
36548;DHT22;22551;52.206;4.856;2023-01-16T11:44:56;4.80;99.90
36548;DHT22;22551;52.206;4.856;2023-01-16T11:50:28;4.80;99.90
36548;DHT22;22551;52.206;4.856;2023-01-16T11:55:38;4.80;99.90
36548;DHT22;22551;52.206;4.856;2023-01-16T12:00:52;4.80;99.90
36548;DHT22;22551;52.206;4.856;2023-01-16T12:06:04;4.90;99.90
36548;DHT22;22551;52.206;4.856;2023-01-16T12:11:21;5.00;99.90
36548;DHT22;22551;52.206;4.856;2023-01-16T12:16:36;5.10;99.90
36548;DHT22;22551;52.206;4.856;2023-01-16T12:21:51;5.10;99.90
36548;DHT22;22551;52.206;4.856;2023-01-16T12:27:08;5.20;99.90
36548;DHT22;22551;52.206;4.856;2023-01-16T12:32:41;5.30;99.90
36548;DHT22;22551;52.206;4.856;2023-01-16T12:38:10;5.30;99.90
36548;DHT22;22551;52.206;4.856;2023-01-16T12:43:22;5.40;99.90
36548;DHT22;22551;52.206;4.856;2023-01-16T12:48:50;5.40;99.90
36548;DHT22;22551;52.206;4.856;2023-01-16T12:54:46;5.50;99.90
36548;DHT22;22551;52.206;4.856;2023-01-16T12:59:59;5.50;99.90
36548;DHT22;22551;52.206;4.856;2023-01-16T13:05:09;5.60;99.90
36548;DHT22;22551;52.206;4.856;2023-01-16T13:10:22;5.60;99.90
36548;DHT22;22551;52.206;4.856;2023-01-16T13:15:45;5.60;99.90
36548;DHT22;22551;52.206;4.856;2023-01-16T13:20:54;5.60;99.90
36548;DHT22;22551;52.206;4.856;2023-01-16T13:26:01;5.60;99.90
36548;DHT22;22551;52.206;4.856;2023-01-16T13:31:11;5.60;99.90
36548;DHT22;22551;52.206;4.856;2023-01-16T13:42:12;5.60;99.90
36548;DHT22;22551;52.206;4.856;2023-01-16T13:47:19;5.60;99.90
36548;DHT22;22551;52.206;4.856;2023-01-16T13:52:26;5.50;99.90
36548;DHT22;22551;52.206;4.856;2023-01-16T13:57:30;5.60;99.90
36548;DHT22;22551;52.206;4.856;2023-01-16T14:02:41;5.60;99.90
36548;DHT22;22551;52.206;4.856;2023-01-16T14:07:48;5.60;99.90
36548;DHT22;22551;52.206;4.856;2023-01-16T14:13:21;5.60;99.90
36548;DHT22;22551;52.206;4.856;2023-01-16T14:18:36;5.60;99.90
36548;DHT22;22551;52.206;4.856;2023-01-16T14:23:46;5.70;99.90
36548;DHT22;22551;52.206;4.856;2023-01-16T14:29:14;5.70;99.90
36548;DHT22;22551;52.206;4.856;2023-01-16T14:34:21;5.80;99.90
36548;DHT22;22551;52.206;4.856;2023-01-16T14:39:30;5.80;99.90
36548;DHT22;22551;52.206;4.856;2023-01-16T14:45:09;5.80;99.90
36548;DHT22;22551;52.206;4.856;2023-01-16T14:50:43;5.80;99.90
36548;DHT22;22551;52.206;4.856;2023-01-16T14:56:21;5.80;99.90
36548;DHT22;22551;52.206;4.856;2023-01-16T15:01:31;5.70;99.90
36548;DHT22;22551;52.206;4.856;2023-01-16T15:06:56;5.60;99.90
36548;DHT22;22551;52.206;4.856;2023-01-16T15:12:02;5.60;99.90
36548;DHT22;22551;52.206;4.856;2023-01-16T15:17:17;5.70;99.90
36548;DHT22;22551;52.206;4.856;2023-01-16T15:22:41;5.60;99.90
36548;DHT22;22551;52.206;4.856;2023-01-16T15:27:50;5.60;99.90
36548;DHT22;22551;52.206;4.856;2023-01-16T15:32:59;5.60;99.90
36548;DHT22;22551;52.206;4.856;2023-01-16T15:38:15;5.60;99.90
36548;DHT22;22551;52.206;4.856;2023-01-16T15:43:18;5.60;99.90
36548;DHT22;22551;52.206;4.856;2023-01-16T15:48:47;5.60;99.90
36548;DHT22;22551;52.206;4.856;2023-01-16T15:53:56;5.60;99.90
36548;DHT22;22551;52.206;4.856;2023-01-16T15:59:00;5.60;99.90
36548;DHT22;22551;52.206;4.856;2023-01-16T16:04:04;5.50;99.90
36548;DHT22;22551;52.206;4.856;2023-01-16T16:09:16;4.90;99.90
36548;DHT22;22551;52.206;4.856;2023-01-16T16:14:23;4.50;99.90
36548;DHT22;22551;52.206;4.856;2023-01-16T16:19:46;4.30;99.90
36548;DHT22;22551;52.206;4.856;2023-01-16T16:24:48;4.30;99.90
36548;DHT22;22551;52.206;4.856;2023-01-16T16:29:52;4.20;99.90
36548;DHT22;22551;52.206;4.856;2023-01-16T16:34:57;4.10;99.90
36548;DHT22;22551;52.206;4.856;2023-01-16T16:40:08;3.90;99.90
36548;DHT22;22551;52.206;4.856;2023-01-16T16:45:20;4.00;99.90
36548;DHT22;22551;52.206;4.856;2023-01-16T16:50:29;3.90;99.90
36548;DHT22;22551;52.206;4.856;2023-01-16T16:55:34;4.10;99.90
36548;DHT22;22551;52.206;4.856;2023-01-16T17:00:38;4.00;99.90
36548;DHT22;22551;52.206;4.856;2023-01-16T17:05:42;4.10;99.90
36548;DHT22;22551;52.206;4.856;2023-01-16T17:10:44;4.10;99.90
36548;DHT22;22551;52.206;4.856;2023-01-16T17:15:53;4.10;99.90
36548;DHT22;22551;52.206;4.856;2023-01-16T17:20:58;4.10;99.90
36548;DHT22;22551;52.206;4.856;2023-01-16T17:26:00;4.20;99.90
36548;DHT22;22551;52.206;4.856;2023-01-16T17:31:04;4.30;99.90
36548;DHT22;22551;52.206;4.856;2023-01-16T17:36:12;4.20;99.90
36548;DHT22;22551;52.206;4.856;2023-01-16T17:41:19;4.20;99.90
36548;DHT22;22551;52.206;4.856;2023-01-16T17:46:24;4.10;99.90
36548;DHT22;22551;52.206;4.856;2023-01-16T17:51:29;4.10;99.90
36548;DHT22;22551;52.206;4.856;2023-01-16T17:56:32;4.00;99.90
36548;DHT22;22551;52.206;4.856;2023-01-16T18:01:35;4.00;99.90
36548;DHT22;22551;52.206;4.856;2023-01-16T18:06:40;4.00;99.90
36548;DHT22;22551;52.206;4.856;2023-01-16T18:11:43;4.10;99.90
36548;DHT22;22551;52.206;4.856;2023-01-16T18:17:03;4.10;99.90
36548;DHT22;22551;52.206;4.856;2023-01-16T18:22:28;4.10;99.90
36548;DHT22;22551;52.206;4.856;2023-01-16T18:27:31;4.10;99.90
36548;DHT22;22551;52.206;4.856;2023-01-16T18:32:34;4.10;99.90
36548;DHT22;22551;52.206;4.856;2023-01-16T18:37:39;4.00;99.90
36548;DHT22;22551;52.206;4.856;2023-01-16T18:42:41;4.00;99.90
36548;DHT22;22551;52.206;4.856;2023-01-16T18:48:01;4.00;99.90
36548;DHT22;22551;52.206;4.856;2023-01-16T18:53:27;4.00;99.90
36548;DHT22;22551;52.206;4.856;2023-01-16T18:58:48;4.00;99.90
36548;DHT22;22551;52.206;4.856;2023-01-16T19:04:07;4.10;99.90
36548;DHT22;22551;52.206;4.856;2023-01-16T19:09:11;4.10;99.90
36548;DHT22;22551;52.206;4.856;2023-01-16T19:14:14;4.20;99.90
36548;DHT22;22551;52.206;4.856;2023-01-16T19:19:16;4.10;99.90
36548;DHT22;22551;52.206;4.856;2023-01-16T19:24:20;4.10;99.90
36548;DHT22;22551;52.206;4.856;2023-01-16T19:29:25;4.20;99.90
36548;DHT22;22551;52.206;4.856;2023-01-16T19:34:28;4.20;99.90
36548;DHT22;22551;52.206;4.856;2023-01-16T19:39:33;4.10;99.90
36548;DHT22;22551;52.206;4.856;2023-01-16T19:44:35;4.20;99.90
36548;DHT22;22551;52.206;4.856;2023-01-16T19:49:55;4.10;99.90
36548;DHT22;22551;52.206;4.856;2023-01-16T19:54:59;4.10;99.90
36548;DHT22;22551;52.206;4.856;2023-01-16T20:00:01;4.10;99.90
36548;DHT22;22551;52.206;4.856;2023-01-16T20:05:05;4.20;99.90
36548;DHT22;22551;52.206;4.856;2023-01-16T20:10:09;4.10;99.90
36548;DHT22;22551;52.206;4.856;2023-01-16T20:15:13;4.10;99.90
36548;DHT22;22551;52.206;4.856;2023-01-16T20:20:19;4.00;99.90
36548;DHT22;22551;52.206;4.856;2023-01-16T20:25:22;4.10;99.90
36548;DHT22;22551;52.206;4.856;2023-01-16T20:30:24;4.00;99.90
36548;DHT22;22551;52.206;4.856;2023-01-16T20:35:44;4.10;99.90
36548;DHT22;22551;52.206;4.856;2023-01-16T20:40:47;4.00;99.90
36548;DHT22;22551;52.206;4.856;2023-01-16T20:45:50;4.10;99.90
36548;DHT22;22551;52.206;4.856;2023-01-16T20:50:52;4.20;99.90
36548;DHT22;22551;52.206;4.856;2023-01-16T20:55:55;4.20;99.90
36548;DHT22;22551;52.206;4.856;2023-01-16T21:00:58;4.10;99.90
36548;DHT22;22551;52.206;4.856;2023-01-16T21:06:01;3.90;99.90
36548;DHT22;22551;52.206;4.856;2023-01-16T21:11:04;3.60;99.90
36548;DHT22;22551;52.206;4.856;2023-01-16T21:16:27;3.50;99.90
36548;DHT22;22551;52.206;4.856;2023-01-16T21:21:47;3.60;99.90
36548;DHT22;22551;52.206;4.856;2023-01-16T21:26:50;3.70;99.90
36548;DHT22;22551;52.206;4.856;2023-01-16T21:31:53;3.70;99.90
36548;DHT22;22551;52.206;4.856;2023-01-16T21:36:55;3.80;99.90
36548;DHT22;22551;52.206;4.856;2023-01-16T21:41:59;3.90;99.90
36548;DHT22;22551;52.206;4.856;2023-01-16T21:47:21;3.90;99.90
36548;DHT22;22551;52.206;4.856;2023-01-16T21:52:23;4.00;99.90
36548;DHT22;22551;52.206;4.856;2023-01-16T21:57:29;3.90;99.90
36548;DHT22;22551;52.206;4.856;2023-01-16T22:02:32;3.90;99.90
36548;DHT22;22551;52.206;4.856;2023-01-16T22:07:35;3.90;99.90
36548;DHT22;22551;52.206;4.856;2023-01-16T22:12:39;4.00;99.90
36548;DHT22;22551;52.206;4.856;2023-01-16T22:18:00;4.00;99.90
36548;DHT22;22551;52.206;4.856;2023-01-16T22:23:14;4.10;99.90
36548;DHT22;22551;52.206;4.856;2023-01-16T22:28:22;4.00;99.90
36548;DHT22;22551;52.206;4.856;2023-01-16T22:33:26;4.10;99.90
36548;DHT22;22551;52.206;4.856;2023-01-16T22:38:33;4.10;99.90
36548;DHT22;22551;52.206;4.856;2023-01-16T22:43:38;4.10;99.90
36548;DHT22;22551;52.206;4.856;2023-01-16T22:48:59;4.00;99.90
36548;DHT22;22551;52.206;4.856;2023-01-16T22:54:02;3.90;99.90
36548;DHT22;22551;52.206;4.856;2023-01-16T22:59:06;3.90;99.90
36548;DHT22;22551;52.206;4.856;2023-01-16T23:04:09;3.70;99.90
36548;DHT22;22551;52.206;4.856;2023-01-16T23:09:12;3.60;99.90
36548;DHT22;22551;52.206;4.856;2023-01-16T23:14:19;3.60;99.90
36548;DHT22;22551;52.206;4.856;2023-01-16T23:19:24;3.60;99.90
36548;DHT22;22551;52.206;4.856;2023-01-16T23:24:29;3.60;99.90
36548;DHT22;22551;52.206;4.856;2023-01-16T23:29:35;3.60;99.90
36548;DHT22;22551;52.206;4.856;2023-01-16T23:34:37;3.70;99.90
36548;DHT22;22551;52.206;4.856;2023-01-16T23:39:39;3.70;99.90
36548;DHT22;22551;52.206;4.856;2023-01-16T23:44:43;3.60;99.90
36548;DHT22;22551;52.206;4.856;2023-01-16T23:49:47;3.50;99.90
36548;DHT22;22551;52.206;4.856;2023-01-16T23:54:50;3.30;99.90
36548;DHT22;22551;52.206;4.856;2023-01-16T23:59:54;3.20;99.90
